createdAt,value
2017-07-14T00:00:51.944Z,128
2017-07-14T00:01:51.973Z,128
2017-07-14T00:02:52.034Z,144
2017-07-14T00:03:52.026Z,128
2017-07-14T00:04:52.037Z,128
2017-07-14T00:05:51.946Z,144
2017-07-14T00:06:52.039Z,128
2017-07-14T00:07:52.045Z,144
2017-07-14T00:08:51.947Z,144
2017-07-14T00:09:52.034Z,144
2017-07-14T00:10:51.956Z,144
2017-07-14T00:11:51.946Z,144
2017-07-14T00:12:52.068Z,144
2017-07-14T00:13:52.043Z,144
2017-07-14T00:14:52.032Z,144
2017-07-14T00:15:52.021Z,144
2017-07-14T00:16:52.028Z,144
2017-07-14T00:17:52.047Z,144
2017-07-14T00:18:52.023Z,144
2017-07-14T00:19:52.021Z,144
2017-07-14T00:20:52.026Z,144
2017-07-14T00:21:51.999Z,144
2017-07-14T00:22:52.027Z,144
2017-07-14T00:23:52.025Z,144
2017-07-14T00:24:52.027Z,144
2017-07-14T00:25:52.026Z,144
2017-07-14T00:26:52.031Z,144
2017-07-14T00:27:52.028Z,144
2017-07-14T00:28:52.029Z,144
2017-07-14T00:29:52.027Z,144
2017-07-14T00:30:52.031Z,144
2017-07-14T00:31:52.032Z,144
2017-07-14T00:32:52.031Z,144
2017-07-14T00:33:52.038Z,144
2017-07-14T00:34:52.058Z,144
2017-07-14T00:35:52.058Z,144
2017-07-14T00:36:52.057Z,144
2017-07-14T00:37:51.959Z,144
2017-07-14T00:38:51.963Z,144
2017-07-14T00:39:52.054Z,160
2017-07-14T00:40:52.062Z,160
2017-07-14T00:41:51.966Z,160
2017-07-14T00:42:52.053Z,160
2017-07-14T00:43:52.063Z,160
2017-07-14T00:44:51.985Z,160
2017-07-14T00:45:51.946Z,160
2017-07-14T00:46:51.916Z,160
2017-07-14T00:47:52.038Z,160
2017-07-14T00:48:51.916Z,160
2017-07-14T00:49:51.960Z,160
2017-07-14T00:50:51.945Z,160
2017-07-14T00:51:51.962Z,160
2017-07-14T00:52:51.988Z,160
2017-07-14T00:53:51.945Z,160
2017-07-14T00:54:51.978Z,176
2017-07-14T00:55:52.068Z,176
2017-07-14T00:56:52.067Z,176
2017-07-14T00:57:52.063Z,160
2017-07-14T00:58:52.064Z,176
2017-07-14T00:59:52.125Z,176
2017-07-14T01:00:52.071Z,176
2017-07-14T01:01:51.976Z,176
2017-07-14T01:02:52.033Z,176
2017-07-14T01:03:52.045Z,176
2017-07-14T01:04:52.133Z,176
2017-07-14T01:05:52.037Z,176
2017-07-14T01:06:52.040Z,192
2017-07-14T01:07:52.049Z,192
2017-07-14T01:08:52.038Z,192
2017-07-14T01:09:52.041Z,192
2017-07-14T01:10:52.045Z,192
2017-07-14T01:11:52.040Z,192
2017-07-14T01:12:52.046Z,192
2017-07-14T01:13:52.036Z,192
2017-07-14T01:14:52.066Z,192
2017-07-14T01:15:52.177Z,192
2017-07-14T01:16:52.079Z,192
2017-07-14T01:17:52.078Z,192
2017-07-14T01:18:52.079Z,192
2017-07-14T01:19:52.083Z,192
2017-07-14T01:20:52.082Z,192
2017-07-14T01:21:52.084Z,208
2017-07-14T01:22:52.086Z,208
2017-07-14T01:23:52.083Z,208
2017-07-14T01:24:52.078Z,208
2017-07-14T01:25:52.059Z,208
2017-07-14T01:26:52.084Z,208
2017-07-14T01:27:52.085Z,208
2017-07-14T01:28:52.023Z,208
2017-07-14T01:29:51.994Z,208
2017-07-14T01:30:52.088Z,208
2017-07-14T01:31:52.066Z,208
2017-07-14T01:32:52.089Z,208
2017-07-14T01:33:51.995Z,208
2017-07-14T01:34:51.998Z,208
2017-07-14T01:35:52.089Z,208
2017-07-14T01:36:52.001Z,208
2017-07-14T01:37:52.094Z,208
2017-07-14T01:38:52.009Z,208
2017-07-14T01:39:52.005Z,208
2017-07-14T01:40:52.297Z,208
2017-07-14T01:41:52.092Z,208
2017-07-14T01:42:52.092Z,208
2017-07-14T01:43:52.094Z,208
2017-07-14T01:44:52.060Z,208
2017-07-14T01:45:52.061Z,208
2017-07-14T01:46:52.062Z,208
2017-07-14T01:47:52.057Z,208
2017-07-14T01:48:52.061Z,208
2017-07-14T01:49:52.065Z,208
2017-07-14T01:50:52.067Z,208
2017-07-14T01:51:52.066Z,208
2017-07-14T01:52:52.062Z,208
2017-07-14T01:53:52.066Z,208
2017-07-14T01:54:52.187Z,208
2017-07-14T01:55:51.997Z,208
2017-07-14T01:56:52.080Z,208
2017-07-14T01:57:52.077Z,208
2017-07-14T01:58:52.078Z,208
2017-07-14T01:59:52.078Z,208
2017-07-14T02:00:52.080Z,208
2017-07-14T02:01:52.078Z,208
2017-07-14T02:02:52.082Z,208
2017-07-14T02:03:52.084Z,208
2017-07-14T02:04:52.106Z,208
2017-07-14T02:05:52.104Z,208
2017-07-14T02:06:52.013Z,208
2017-07-14T02:07:52.109Z,208
2017-07-14T02:08:52.019Z,208
2017-07-14T02:09:52.017Z,208
2017-07-14T02:10:52.109Z,208
2017-07-14T02:11:52.121Z,208
2017-07-14T02:12:52.111Z,208
2017-07-14T02:13:52.107Z,208
2017-07-14T02:14:52.093Z,208
2017-07-14T02:15:52.073Z,208
2017-07-14T02:16:52.078Z,208
2017-07-14T02:17:52.082Z,208
2017-07-14T02:18:52.081Z,208
2017-07-14T02:19:52.082Z,208
2017-07-14T02:20:52.079Z,208
2017-07-14T02:21:52.079Z,208
2017-07-14T02:22:52.080Z,208
2017-07-14T02:23:52.080Z,208
2017-07-14T02:24:52.085Z,208
2017-07-14T02:25:52.076Z,208
2017-07-14T02:26:52.125Z,208
2017-07-14T02:27:52.099Z,208
2017-07-14T02:28:52.123Z,208
2017-07-14T02:29:52.031Z,208
2017-07-14T02:30:52.119Z,208
2017-07-14T02:31:52.204Z,208
2017-07-14T02:32:52.026Z,208
2017-07-14T02:33:52.111Z,208
2017-07-14T02:34:52.117Z,208
2017-07-14T02:35:52.189Z,208
2017-07-14T02:36:52.086Z,208
2017-07-14T02:37:52.086Z,208
2017-07-14T02:38:52.089Z,208
2017-07-14T02:39:52.086Z,208
2017-07-14T02:40:52.188Z,208
2017-07-14T02:41:52.090Z,208
2017-07-14T02:42:52.093Z,208
2017-07-14T02:43:52.095Z,208
2017-07-14T02:44:52.017Z,208
2017-07-14T02:45:52.104Z,208
2017-07-14T02:46:52.095Z,208
2017-07-14T02:47:52.094Z,208
2017-07-14T02:48:52.093Z,208
2017-07-14T02:49:52.102Z,208
2017-07-14T02:50:52.101Z,208
2017-07-14T02:51:52.092Z,208
2017-07-14T02:52:52.195Z,208
2017-07-14T02:53:52.100Z,208
2017-07-14T02:54:52.100Z,208
2017-07-14T02:55:52.107Z,208
2017-07-14T02:56:52.112Z,208
2017-07-14T02:57:52.110Z,208
2017-07-14T02:58:52.112Z,208
2017-07-14T02:59:52.110Z,208
2017-07-14T03:00:52.112Z,208
2017-07-14T03:01:52.113Z,208
2017-07-14T03:02:52.116Z,208
2017-07-14T03:03:52.115Z,208
2017-07-14T03:04:52.113Z,208
2017-07-14T03:05:52.118Z,208
2017-07-14T03:06:52.116Z,208
2017-07-14T03:07:52.116Z,208
2017-07-14T03:08:52.126Z,208
2017-07-14T03:09:52.119Z,208
2017-07-14T03:10:52.122Z,208
2017-07-14T03:11:52.123Z,208
2017-07-14T03:12:52.152Z,208
2017-07-14T03:13:52.142Z,208
2017-07-14T03:14:52.124Z,208
2017-07-14T03:15:52.057Z,208
2017-07-14T03:16:52.138Z,208
2017-07-14T03:17:52.151Z,208
2017-07-14T03:18:52.057Z,208
2017-07-14T03:19:52.137Z,208
2017-07-14T03:20:52.173Z,208
2017-07-14T03:21:52.151Z,208
2017-07-14T03:22:52.198Z,208
2017-07-14T03:23:52.149Z,208
2017-07-14T03:24:52.149Z,208
2017-07-14T03:25:52.126Z,208
2017-07-14T03:26:52.133Z,208
2017-07-14T03:27:52.130Z,208
2017-07-14T03:28:52.134Z,208
2017-07-14T03:29:52.131Z,208
2017-07-14T03:30:52.135Z,208
2017-07-14T03:31:52.133Z,208
2017-07-14T03:32:52.132Z,208
2017-07-14T03:33:52.131Z,208
2017-07-14T03:34:52.134Z,208
2017-07-14T03:35:52.133Z,208
2017-07-14T03:36:52.136Z,208
2017-07-14T03:37:52.132Z,192
2017-07-14T03:38:52.137Z,208
2017-07-14T03:39:52.137Z,192
2017-07-14T03:40:52.140Z,208
2017-07-14T03:41:52.145Z,208
2017-07-14T03:42:52.140Z,208
2017-07-14T03:43:52.139Z,208
2017-07-14T03:44:52.137Z,208
2017-07-14T03:45:52.032Z,208
2017-07-14T03:46:52.067Z,208
2017-07-14T03:47:52.052Z,192
2017-07-14T03:48:52.059Z,208
2017-07-14T03:49:52.044Z,208
2017-07-14T03:50:52.036Z,192
2017-07-14T03:51:52.067Z,192
2017-07-14T03:52:52.057Z,192
2017-07-14T03:53:52.057Z,208
2017-07-14T03:54:52.064Z,208
2017-07-14T03:55:52.154Z,208
2017-07-14T03:56:52.073Z,208
2017-07-14T03:57:52.170Z,208
2017-07-14T03:58:52.163Z,208
2017-07-14T03:59:52.168Z,208
2017-07-14T04:00:52.167Z,208
2017-07-14T04:01:52.155Z,192
2017-07-14T04:02:52.074Z,192
2017-07-14T04:03:52.168Z,208
2017-07-14T04:04:52.167Z,208
2017-07-14T04:05:52.169Z,208
2017-07-14T04:06:52.169Z,208
2017-07-14T04:07:52.172Z,208
2017-07-14T04:08:52.142Z,192
2017-07-14T04:09:52.080Z,208
2017-07-14T04:10:52.174Z,192
2017-07-14T04:11:52.161Z,192
2017-07-14T04:12:52.085Z,192
2017-07-14T04:13:52.175Z,192
2017-07-14T04:14:52.177Z,192
2017-07-14T04:15:52.168Z,192
2017-07-14T04:16:52.172Z,208
2017-07-14T04:17:52.178Z,192
2017-07-14T04:18:52.179Z,208
2017-07-14T04:19:52.161Z,192
2017-07-14T04:20:52.147Z,192
2017-07-14T04:21:52.173Z,192
2017-07-14T04:22:52.179Z,192
2017-07-14T04:23:52.096Z,208
2017-07-14T04:24:52.171Z,192
2017-07-14T04:25:52.176Z,208
2017-07-14T04:26:52.170Z,192
2017-07-14T04:27:52.196Z,192
2017-07-14T04:28:52.182Z,192
2017-07-14T04:29:52.169Z,192
2017-07-14T04:30:52.191Z,208
2017-07-14T04:31:52.097Z,192
2017-07-14T04:32:52.122Z,192
2017-07-14T04:33:52.097Z,208
2017-07-14T04:34:52.090Z,192
2017-07-14T04:35:52.100Z,208
2017-07-14T04:36:52.189Z,208
2017-07-14T04:37:52.189Z,208
2017-07-14T04:38:52.096Z,208
2017-07-14T04:39:52.188Z,208
2017-07-14T04:40:52.100Z,192
2017-07-14T04:41:52.239Z,192
2017-07-14T04:42:52.098Z,192
2017-07-14T04:43:52.160Z,192
2017-07-14T04:44:52.195Z,192
2017-07-14T04:45:52.182Z,192
2017-07-14T04:46:52.184Z,192
2017-07-14T04:47:52.188Z,192
2017-07-14T04:48:52.168Z,208
2017-07-14T04:49:52.109Z,208
2017-07-14T04:50:52.192Z,208
2017-07-14T04:51:52.168Z,208
2017-07-14T04:52:52.199Z,192
2017-07-14T04:53:52.197Z,208
2017-07-14T04:54:52.249Z,208
2017-07-14T04:55:52.103Z,208
2017-07-14T04:56:52.115Z,192
2017-07-14T04:57:52.192Z,192
2017-07-14T04:58:52.142Z,208
2017-07-14T04:59:52.211Z,208
2017-07-14T05:00:52.201Z,208
2017-07-14T05:01:52.208Z,208
2017-07-14T05:02:52.203Z,208
2017-07-14T05:03:52.112Z,208
2017-07-14T05:04:52.118Z,208
2017-07-14T05:05:52.165Z,208
2017-07-14T05:06:52.168Z,208
2017-07-14T05:07:52.169Z,208
2017-07-14T05:08:52.168Z,208
2017-07-14T05:09:52.185Z,208
2017-07-14T05:10:52.169Z,208
2017-07-14T05:11:52.171Z,208
2017-07-14T05:12:52.175Z,208
2017-07-14T05:13:52.172Z,208
2017-07-14T05:14:52.176Z,208
2017-07-14T05:15:52.176Z,208
2017-07-14T05:16:52.171Z,208
2017-07-14T05:17:52.174Z,208
2017-07-14T05:18:52.171Z,208
2017-07-14T05:19:52.179Z,208
2017-07-14T05:20:52.178Z,208
2017-07-14T05:21:52.182Z,208
2017-07-14T05:22:52.175Z,208
2017-07-14T05:23:52.183Z,208
2017-07-14T05:24:52.183Z,208
2017-07-14T05:25:52.182Z,208
2017-07-14T05:26:52.211Z,208
2017-07-14T05:27:52.119Z,208
2017-07-14T05:28:52.204Z,208
2017-07-14T05:29:52.198Z,208
2017-07-14T05:30:52.133Z,208
2017-07-14T05:31:52.213Z,208
2017-07-14T05:32:52.131Z,208
2017-07-14T05:33:52.131Z,208
2017-07-14T05:34:52.315Z,208
2017-07-14T05:35:52.325Z,208
2017-07-14T05:36:52.208Z,208
2017-07-14T05:37:52.215Z,208
2017-07-14T05:38:52.206Z,208
2017-07-14T05:39:52.253Z,208
2017-07-14T05:40:52.230Z,208
2017-07-14T05:41:52.265Z,208
2017-07-14T05:42:52.236Z,208
2017-07-14T05:43:52.302Z,208
2017-07-14T05:44:52.252Z,208
2017-07-14T05:45:52.215Z,208
2017-07-14T05:46:52.208Z,208
2017-07-14T05:47:52.261Z,192
2017-07-14T05:48:52.251Z,192
2017-07-14T05:49:52.201Z,192
2017-07-14T05:50:52.307Z,192
2017-07-14T05:51:52.254Z,192
2017-07-14T05:52:52.309Z,192
2017-07-14T05:53:52.275Z,192
2017-07-14T05:54:52.272Z,192
2017-07-14T05:55:52.275Z,192
2017-07-14T05:56:52.251Z,192
2017-07-14T05:57:52.244Z,192
2017-07-14T05:58:52.287Z,192
2017-07-14T05:59:52.248Z,192
2017-07-14T06:00:52.257Z,192
2017-07-14T06:01:52.315Z,192
2017-07-14T06:02:52.256Z,192
2017-07-14T06:03:52.344Z,192
2017-07-14T06:04:52.342Z,192
2017-07-14T06:05:52.338Z,192
2017-07-14T06:06:52.326Z,192
2017-07-14T06:07:52.251Z,192
2017-07-14T06:08:52.288Z,192
2017-07-14T06:09:52.254Z,176
2017-07-14T06:10:52.319Z,176
2017-07-14T06:11:52.261Z,176
2017-07-14T06:12:52.327Z,176
2017-07-14T06:13:52.290Z,176
2017-07-14T06:14:52.294Z,176
2017-07-14T06:15:52.342Z,176
2017-07-14T06:16:52.288Z,176
2017-07-14T06:17:52.291Z,176
2017-07-14T06:18:52.277Z,176
2017-07-14T06:19:52.320Z,176
2017-07-14T06:20:52.255Z,176
2017-07-14T06:21:52.320Z,176
2017-07-14T06:22:52.326Z,176
2017-07-14T06:23:52.283Z,176
2017-07-14T06:24:52.308Z,176
2017-07-14T06:25:52.330Z,176
2017-07-14T06:26:52.297Z,176
2017-07-14T06:27:52.353Z,176
2017-07-14T06:28:52.328Z,176
2017-07-14T06:29:52.271Z,176
2017-07-14T06:30:52.363Z,176
2017-07-14T06:31:52.266Z,176
2017-07-14T06:32:52.302Z,176
2017-07-14T06:33:52.330Z,160
2017-07-14T06:34:52.304Z,160
2017-07-14T06:35:52.274Z,176
2017-07-14T06:36:52.289Z,160
2017-07-14T06:37:52.333Z,160
2017-07-14T06:38:52.270Z,160
2017-07-14T06:39:52.342Z,160
2017-07-14T06:40:52.335Z,160
2017-07-14T06:41:52.272Z,160
2017-07-14T06:42:52.303Z,160
2017-07-14T06:43:52.342Z,160
2017-07-14T06:44:52.281Z,160
2017-07-14T06:45:52.297Z,160
2017-07-14T06:46:52.300Z,160
2017-07-14T06:47:52.312Z,160
2017-07-14T06:48:52.308Z,160
2017-07-14T06:49:52.364Z,160
2017-07-14T06:50:52.340Z,160
2017-07-14T06:51:52.370Z,160
2017-07-14T06:52:52.338Z,144
2017-07-14T06:53:52.334Z,144
2017-07-14T06:54:52.336Z,144
2017-07-14T06:55:52.304Z,144
2017-07-14T06:56:52.290Z,144
2017-07-14T06:57:52.316Z,144
2017-07-14T06:58:52.271Z,144
2017-07-14T07:00:52.238Z,144
2017-07-14T07:01:52.287Z,144
2017-07-14T07:02:52.316Z,144
2017-07-14T07:03:52.279Z,144
2017-07-14T07:04:52.253Z,144
2017-07-14T07:05:52.302Z,144
2017-07-14T07:06:52.345Z,144
2017-07-14T07:07:52.308Z,144
2017-07-14T07:08:52.316Z,144
2017-07-14T07:09:52.319Z,144
2017-07-14T07:10:52.379Z,144
2017-07-14T07:11:52.313Z,144
2017-07-14T07:12:52.323Z,144
2017-07-14T07:13:52.288Z,144
2017-07-14T07:14:52.348Z,144
2017-07-14T07:15:52.316Z,144
2017-07-14T07:16:52.317Z,144
2017-07-14T07:17:52.291Z,144
2017-07-14T07:18:52.364Z,144
2017-07-14T07:19:52.299Z,144
2017-07-14T07:20:52.302Z,144
2017-07-14T07:21:52.329Z,144
2017-07-14T07:22:52.382Z,144
2017-07-14T07:23:52.478Z,144
2017-07-14T07:24:52.340Z,128
2017-07-14T07:25:52.316Z,128
2017-07-14T07:26:52.357Z,128
2017-07-14T07:27:52.324Z,128
2017-07-14T07:28:52.389Z,128
2017-07-14T07:29:52.329Z,128
2017-07-14T07:30:52.355Z,128
2017-07-14T07:31:52.391Z,128
2017-07-14T07:32:52.356Z,128
2017-07-14T07:33:52.309Z,128
2017-07-14T07:34:52.398Z,128
2017-07-14T07:35:52.359Z,128
2017-07-14T07:36:52.305Z,128
2017-07-14T07:37:52.398Z,128
2017-07-14T07:38:52.311Z,128
2017-07-14T07:39:52.304Z,128
2017-07-14T07:40:52.308Z,128
2017-07-14T07:41:52.400Z,128
2017-07-14T07:42:52.379Z,128
2017-07-14T07:43:52.341Z,128
2017-07-14T07:44:52.407Z,128
2017-07-14T07:45:52.338Z,128
2017-07-14T07:46:52.377Z,112
2017-07-14T07:47:52.400Z,128
2017-07-14T07:48:52.338Z,128
2017-07-14T07:49:52.402Z,128
2017-07-14T07:50:52.350Z,128
2017-07-14T07:51:52.334Z,112
2017-07-14T07:52:52.384Z,112
2017-07-14T07:53:52.346Z,112
2017-07-14T07:54:52.345Z,112
2017-07-14T07:55:52.308Z,112
2017-07-14T07:56:52.335Z,112
2017-07-14T07:57:52.389Z,112
2017-07-14T07:58:52.372Z,112
2017-07-14T07:59:52.334Z,112
2017-07-14T08:00:52.339Z,112
2017-07-14T08:01:52.306Z,112
2017-07-14T08:02:52.313Z,112
2017-07-14T08:03:52.376Z,112
2017-07-14T08:04:52.378Z,112
2017-07-14T08:05:52.378Z,112
2017-07-14T08:06:52.346Z,112
2017-07-14T08:07:52.315Z,112
2017-07-14T08:08:52.358Z,112
2017-07-14T08:09:52.350Z,112
2017-07-14T08:10:52.360Z,112
2017-07-14T08:11:52.351Z,112
2017-07-14T08:12:52.323Z,112
2017-07-14T08:13:52.410Z,112
2017-07-14T08:14:52.418Z,112
2017-07-14T08:15:52.358Z,112
2017-07-14T08:16:52.368Z,112
2017-07-14T08:17:52.388Z,112
2017-07-14T08:18:52.328Z,112
2017-07-14T08:19:52.335Z,112
2017-07-14T08:20:52.331Z,112
2017-07-14T08:21:52.521Z,112
2017-07-14T08:22:52.337Z,112
2017-07-14T08:23:52.397Z,112
2017-07-14T08:24:52.393Z,112
2017-07-14T08:25:52.394Z,112
2017-07-14T08:26:52.332Z,112
2017-07-14T08:27:52.359Z,112
2017-07-14T08:28:52.362Z,112
2017-07-14T08:29:52.368Z,112
2017-07-14T08:30:52.396Z,112
2017-07-14T08:31:52.424Z,96
2017-07-14T08:32:52.351Z,112
2017-07-14T08:33:52.370Z,112
2017-07-14T08:34:52.430Z,96
2017-07-14T08:35:52.424Z,96
2017-07-14T08:36:52.375Z,96
2017-07-14T08:37:52.434Z,96
2017-07-14T08:38:52.395Z,96
2017-07-14T08:39:52.341Z,96
2017-07-14T08:40:52.374Z,96
2017-07-14T08:41:52.438Z,96
2017-07-14T08:42:52.408Z,96
2017-07-14T08:43:52.344Z,96
2017-07-14T08:44:52.440Z,96
2017-07-14T08:45:52.437Z,96
2017-07-14T08:46:52.442Z,96
2017-07-14T08:47:52.347Z,96
2017-07-14T08:48:52.370Z,96
2017-07-14T08:49:52.348Z,96
2017-07-14T08:50:52.379Z,96
2017-07-14T08:51:52.380Z,96
2017-07-14T08:52:52.421Z,96
2017-07-14T08:53:52.410Z,96
2017-07-14T08:54:52.370Z,96
2017-07-14T08:55:52.350Z,96
2017-07-14T08:56:52.350Z,96
2017-07-14T08:57:52.444Z,96
2017-07-14T08:58:52.362Z,96
2017-07-14T08:59:52.412Z,96
2017-07-14T09:00:52.424Z,96
2017-07-14T09:01:52.361Z,96
2017-07-14T09:02:52.368Z,96
2017-07-14T09:03:52.408Z,96
2017-07-14T09:04:52.389Z,96
2017-07-14T09:05:52.413Z,96
2017-07-14T09:06:52.427Z,96
2017-07-14T09:07:52.389Z,96
2017-07-14T09:08:52.427Z,96
2017-07-14T09:09:52.447Z,96
2017-07-14T09:10:52.413Z,96
2017-07-14T09:11:52.411Z,96
2017-07-14T09:12:52.391Z,96
2017-07-14T09:13:52.362Z,96
2017-07-14T09:14:52.458Z,96
2017-07-14T09:15:52.398Z,96
2017-07-14T09:16:52.332Z,80
2017-07-14T09:17:52.388Z,80
2017-07-14T09:18:52.424Z,80
2017-07-14T09:19:52.427Z,80
2017-07-14T09:20:52.376Z,80
2017-07-14T09:21:52.334Z,80
2017-07-14T09:22:52.339Z,80
2017-07-14T09:23:52.360Z,80
2017-07-14T09:24:52.430Z,80
2017-07-14T09:25:52.392Z,80
2017-07-14T09:26:52.368Z,80
2017-07-14T09:27:52.464Z,80
2017-07-14T09:28:52.462Z,80
2017-07-14T09:29:52.422Z,80
2017-07-14T09:30:52.367Z,80
2017-07-14T09:31:52.391Z,80
2017-07-14T09:32:52.367Z,80
2017-07-14T09:33:52.433Z,80
2017-07-14T09:34:52.397Z,80
2017-07-14T09:35:52.428Z,80
2017-07-14T09:36:52.360Z,80
2017-07-14T09:37:52.364Z,80
2017-07-14T09:38:52.365Z,80
2017-07-14T09:39:52.426Z,80
2017-07-14T09:40:52.398Z,80
2017-07-14T09:41:52.370Z,80
2017-07-14T09:42:52.370Z,80
2017-07-14T09:43:52.398Z,80
2017-07-14T09:44:52.392Z,80
2017-07-14T09:45:52.395Z,80
2017-07-14T09:46:52.398Z,80
2017-07-14T09:47:52.439Z,64
2017-07-14T09:48:52.478Z,64
2017-07-14T09:49:52.409Z,64
2017-07-14T09:50:52.382Z,64
2017-07-14T09:51:52.418Z,64
2017-07-14T09:52:52.471Z,64
2017-07-14T09:53:52.441Z,64
2017-07-14T09:54:52.472Z,64
2017-07-14T09:55:52.477Z,64
2017-07-14T09:56:52.406Z,64
2017-07-14T09:57:52.441Z,64
2017-07-14T09:58:52.441Z,64
2017-07-14T09:59:52.385Z,64
2017-07-14T10:00:52.471Z,64
2017-07-14T10:01:52.405Z,64
2017-07-14T10:02:52.387Z,64
2017-07-14T10:03:52.391Z,64
2017-07-14T10:04:52.392Z,64
2017-07-14T10:05:52.454Z,64
2017-07-14T10:06:52.391Z,64
2017-07-14T10:07:52.421Z,64
2017-07-14T10:08:52.388Z,64
2017-07-14T10:09:52.416Z,64
2017-07-14T10:10:52.475Z,64
2017-07-14T10:11:52.389Z,64
2017-07-14T10:12:52.388Z,64
2017-07-14T10:13:52.417Z,64
2017-07-14T10:14:52.415Z,64
2017-07-14T10:15:52.396Z,64
2017-07-14T10:16:52.464Z,64
2017-07-14T10:17:52.411Z,64
2017-07-14T10:18:52.391Z,64
2017-07-14T10:19:52.402Z,64
2017-07-14T10:20:52.409Z,64
2017-07-14T10:21:52.406Z,64
2017-07-14T10:22:52.396Z,64
2017-07-14T10:23:52.364Z,64
2017-07-14T10:24:52.362Z,64
2017-07-14T10:25:52.409Z,64
2017-07-14T10:26:52.390Z,64
2017-07-14T10:27:52.428Z,64
2017-07-14T10:28:52.408Z,64
2017-07-14T10:29:52.426Z,64
2017-07-14T10:30:52.497Z,64
2017-07-14T10:31:52.404Z,48
2017-07-14T10:32:52.431Z,48
2017-07-14T10:33:52.426Z,48
2017-07-14T10:34:52.436Z,48
2017-07-14T10:35:52.478Z,48
2017-07-14T10:36:52.479Z,48
2017-07-14T10:37:52.394Z,64
2017-07-14T10:38:52.428Z,48
2017-07-14T10:39:52.396Z,48
2017-07-14T10:40:52.429Z,48
2017-07-14T10:41:52.426Z,48
2017-07-14T10:42:52.463Z,48
2017-07-14T10:43:52.400Z,48
2017-07-14T10:44:52.431Z,48
2017-07-14T10:45:52.426Z,48
2017-07-14T10:46:52.430Z,48
2017-07-14T10:47:52.429Z,48
2017-07-14T10:48:52.436Z,48
2017-07-14T10:49:52.470Z,48
2017-07-14T10:50:52.423Z,48
2017-07-14T10:51:52.433Z,48
2017-07-14T10:52:52.364Z,48
2017-07-14T10:53:52.435Z,48
2017-07-14T10:54:52.495Z,48
2017-07-14T10:55:52.557Z,48
2017-07-14T10:56:52.366Z,48
2017-07-14T10:57:52.423Z,48
2017-07-14T10:58:52.477Z,48
2017-07-14T10:59:52.425Z,48
2017-07-14T11:00:52.413Z,48
2017-07-14T11:01:52.368Z,48
2017-07-14T11:02:52.440Z,48
2017-07-14T11:03:52.456Z,48
2017-07-14T11:04:52.445Z,48
2017-07-14T11:05:52.427Z,48
2017-07-14T11:06:52.393Z,48
2017-07-14T11:07:52.450Z,48
2017-07-14T11:08:52.460Z,48
2017-07-14T11:09:52.484Z,48
2017-07-14T11:10:52.486Z,48
2017-07-14T11:11:52.517Z,48
2017-07-14T11:12:52.424Z,48
2017-07-14T11:13:52.459Z,48
2017-07-14T11:14:52.425Z,48
2017-07-14T11:15:52.517Z,48
2017-07-14T11:16:52.431Z,48
2017-07-14T11:17:52.430Z,48
2017-07-14T11:18:52.426Z,48
2017-07-14T11:19:52.409Z,48
2017-07-14T11:20:52.404Z,48
2017-07-14T11:21:52.454Z,48
2017-07-14T11:22:52.441Z,48
2017-07-14T11:23:52.405Z,32
2017-07-14T11:24:52.451Z,48
2017-07-14T11:25:52.454Z,32
2017-07-14T11:26:52.453Z,32
2017-07-14T11:27:52.445Z,48
2017-07-14T11:28:52.433Z,32
2017-07-14T11:29:52.416Z,32
2017-07-14T11:30:52.477Z,32
2017-07-14T11:31:52.417Z,32
2017-07-14T11:32:52.451Z,32
2017-07-14T11:33:52.451Z,32
2017-07-14T11:34:52.398Z,32
2017-07-14T11:35:52.418Z,32
2017-07-14T11:36:52.458Z,32
2017-07-14T11:37:52.475Z,32
2017-07-14T11:38:52.440Z,32
2017-07-14T11:39:52.473Z,32
2017-07-14T11:40:52.474Z,32
2017-07-14T11:41:52.533Z,32
2017-07-14T11:42:52.540Z,32
2017-07-14T11:43:52.518Z,32
2017-07-14T11:44:52.479Z,32
2017-07-14T11:45:52.540Z,32
2017-07-14T11:46:52.473Z,32
2017-07-14T11:47:52.496Z,32
2017-07-14T11:48:52.457Z,32
2017-07-14T11:49:52.438Z,32
2017-07-14T11:50:52.497Z,32
2017-07-14T11:51:52.498Z,32
2017-07-14T11:52:52.444Z,32
2017-07-14T11:53:52.443Z,32
2017-07-14T11:54:52.470Z,32
2017-07-14T11:55:52.476Z,32
2017-07-14T11:56:52.499Z,32
2017-07-14T11:57:52.581Z,32
2017-07-14T11:58:52.454Z,32
2017-07-14T11:59:52.464Z,32
2017-07-14T12:00:52.460Z,32
2017-07-14T12:01:52.504Z,32
2017-07-14T12:02:52.498Z,32
2017-07-14T12:03:52.453Z,32
2017-07-14T12:04:52.455Z,32
2017-07-14T12:05:52.473Z,32
2017-07-14T12:06:52.470Z,32
2017-07-14T12:07:52.527Z,32
2017-07-14T12:08:52.514Z,32
2017-07-14T12:09:52.446Z,32
2017-07-14T12:10:52.452Z,32
2017-07-14T12:11:52.478Z,32
2017-07-14T12:12:52.513Z,32
2017-07-14T12:13:52.455Z,32
2017-07-14T12:14:52.511Z,32
2017-07-14T12:15:52.456Z,32
2017-07-14T12:16:52.486Z,32
2017-07-14T12:17:52.496Z,32
2017-07-14T12:18:52.480Z,32
2017-07-14T12:19:52.533Z,32
2017-07-14T12:20:52.536Z,32
2017-07-14T12:21:52.527Z,32
2017-07-14T12:22:52.462Z,32
2017-07-14T12:23:52.482Z,32
2017-07-14T12:24:52.535Z,32
2017-07-14T12:25:52.522Z,32
2017-07-14T12:26:52.504Z,32
2017-07-14T12:27:52.466Z,32
2017-07-14T12:28:52.492Z,32
2017-07-14T12:29:52.483Z,32
2017-07-14T12:30:52.435Z,32
2017-07-14T12:31:52.470Z,32
2017-07-14T12:32:52.488Z,32
2017-07-14T12:33:52.519Z,32
2017-07-14T12:34:52.450Z,32
2017-07-14T12:35:52.492Z,32
2017-07-14T12:36:52.477Z,32
2017-07-14T12:37:52.527Z,32
2017-07-14T12:38:52.522Z,32
2017-07-14T12:39:52.471Z,32
2017-07-14T12:40:52.462Z,32
2017-07-14T12:41:52.528Z,32
2017-07-14T12:42:52.532Z,32
2017-07-14T12:43:52.470Z,32
2017-07-14T12:44:52.506Z,32
2017-07-14T12:45:52.513Z,32
2017-07-14T12:46:52.470Z,32
2017-07-14T12:47:52.573Z,32
2017-07-14T12:48:52.496Z,32
2017-07-14T12:49:52.481Z,32
2017-07-14T12:50:52.488Z,32
2017-07-14T12:51:52.515Z,32
2017-07-14T12:52:52.490Z,32
2017-07-14T12:53:52.540Z,32
2017-07-14T12:54:52.483Z,32
2017-07-14T12:55:52.577Z,32
2017-07-14T12:56:52.509Z,32
2017-07-14T12:57:52.458Z,32
2017-07-14T12:58:52.439Z,32
2017-07-14T12:59:52.480Z,32
2017-07-14T13:00:52.501Z,32
2017-07-14T13:01:52.510Z,16
2017-07-14T13:02:52.487Z,32
2017-07-14T13:03:52.552Z,32
2017-07-14T13:04:52.486Z,32
2017-07-14T13:05:52.507Z,32
2017-07-14T13:06:52.556Z,32
2017-07-14T13:07:52.521Z,16
2017-07-14T13:08:52.500Z,32
2017-07-14T13:09:52.487Z,32
2017-07-14T13:10:52.510Z,16
2017-07-14T13:11:52.514Z,16
2017-07-14T13:12:52.488Z,32
2017-07-14T13:13:52.521Z,16
2017-07-14T13:14:52.513Z,32
2017-07-14T13:15:52.495Z,32
2017-07-14T13:16:52.491Z,16
2017-07-14T13:17:52.515Z,16
2017-07-14T13:18:52.521Z,16
2017-07-14T13:19:52.529Z,16
2017-07-14T13:20:52.521Z,16
2017-07-14T13:21:52.506Z,16
2017-07-14T13:22:52.501Z,16
2017-07-14T13:23:52.537Z,16
2017-07-14T13:24:52.583Z,16
2017-07-14T13:25:52.500Z,16
2017-07-14T13:26:52.505Z,16
2017-07-14T13:27:52.580Z,16
2017-07-14T13:28:52.537Z,16
2017-07-14T13:29:52.527Z,16
2017-07-14T13:30:52.527Z,16
2017-07-14T13:31:52.529Z,16
2017-07-14T13:32:52.600Z,16
2017-07-14T13:33:52.512Z,16
2017-07-14T13:34:52.529Z,16
2017-07-14T13:35:52.597Z,16
2017-07-14T13:36:52.524Z,16
2017-07-14T13:37:52.494Z,16
2017-07-14T13:38:52.565Z,16
2017-07-14T13:39:52.565Z,16
2017-07-14T13:40:52.569Z,16
2017-07-14T13:41:52.570Z,16
2017-07-14T13:42:52.531Z,16
2017-07-14T13:43:52.538Z,16
2017-07-14T13:44:52.568Z,16
2017-07-14T13:45:52.530Z,16
2017-07-14T13:46:52.537Z,16
2017-07-14T13:47:52.566Z,16
2017-07-14T13:48:52.567Z,16
2017-07-14T13:49:52.569Z,16
2017-07-14T13:50:52.508Z,16
2017-07-14T13:51:52.532Z,16
2017-07-14T13:52:52.539Z,16
2017-07-14T13:53:52.507Z,16
2017-07-14T13:54:52.571Z,16
2017-07-14T13:55:52.540Z,16
2017-07-14T13:56:52.509Z,16
2017-07-14T13:57:52.504Z,16
2017-07-14T13:58:52.586Z,16